Time;durP1;ratioP1;P1;durP2;ratioP2;P2;SDS_P1;SDS_P2;PMS_P1;PMS_P2;Temp;Humidity;BMP_temperature;BMP_pressure;BME280_temperature;BME280_humidity;BME280_pressure;Samples;Min_cycle;Max_cycle;Signal;HPM_P1;HPM_P2
2022/01/16 00:01:34;;;;;;;46.43;11.80;;;2.90;99.90;;;;;;5122301;27;20282;-55
2022/01/16 00:04:08;;;;;;;79.03;14.30;;;2.80;99.90;;;;;;5129662;27;20219;-55
2022/01/16 00:06:37;;;;;;;107.97;15.57;;;2.80;99.90;;;;;;5132883;27;20206;-55
2022/01/16 00:09:06;;;;;;;59.03;12.33;;;2.70;99.90;;;;;;5122174;27;20231;-54
2022/01/16 00:11:36;;;;;;;140.30;17.07;;;2.70;99.90;;;;;;5112955;28;20199;-55
2022/01/16 00:14:05;;;;;;;106.33;15.07;;;2.70;99.90;;;;;;5112076;28;20211;-56
2022/01/16 00:16:33;;;;;;;78.27;13.60;;;2.70;99.90;;;;;;5113158;28;20200;-54
2022/01/16 00:19:02;;;;;;;43.17;11.93;;;2.50;99.90;;;;;;5112560;28;20262;-56
2022/01/16 00:21:32;;;;;;;63.17;12.17;;;2.60;99.90;;;;;;5112881;28;20626;-54
2022/01/16 00:24:01;;;;;;;130.87;16.10;;;2.70;99.90;;;;;;5112491;28;20261;-55
2022/01/16 00:26:29;;;;;;;83.17;13.83;;;2.70;99.90;;;;;;5112294;28;20805;-55
2022/01/16 00:28:58;;;;;;;70.90;12.87;;;2.70;99.90;;;;;;5112836;28;20277;-56
2022/01/16 00:31:26;;;;;;;70.33;13.17;;;2.80;99.90;;;;;;5112200;28;20250;-54
2022/01/16 00:33:54;;;;;;;139.77;16.33;;;2.80;99.90;;;;;;5112761;28;20204;-55
2022/01/16 00:36:23;;;;;;;121.97;14.97;;;2.70;99.90;;;;;;5112412;28;20201;-55
2022/01/16 00:38:53;;;;;;;89.63;14.23;;;2.60;99.90;;;;;;5112131;28;20283;-56
2022/01/16 00:41:22;;;;;;;156.33;18.27;;;2.60;99.90;;;;;;5112650;28;20264;-55
2022/01/16 00:43:52;;;;;;;81.67;13.40;;;2.50;99.90;;;;;;5112317;28;20591;-56
2022/01/16 00:46:22;;;;;;;39.67;11.57;;;2.60;99.90;;;;;;5112230;28;20223;-54
2022/01/16 00:48:50;;;;;;;40.13;12.60;;;2.70;99.90;;;;;;5123610;27;20309;-55
2022/01/16 00:51:19;;;;;;;43.97;13.00;;;2.70;99.90;;;;;;5132481;27;20740;-55
2022/01/16 00:53:47;;;;;;;25.07;11.10;;;2.70;99.90;;;;;;5092641;27;20672;-55
2022/01/16 00:56:15;;;;;;;63.27;13.30;;;2.80;99.90;;;;;;5094414;28;20203;-54
2022/01/16 00:58:44;;;;;;;104.90;16.10;;;2.70;99.90;;;;;;5111300;28;20556;-55
2022/01/16 01:01:12;;;;;;;89.80;14.17;;;2.70;99.90;;;;;;5112139;28;20204;-56
2022/01/16 01:03:42;;;;;;;61.00;13.07;;;2.70;99.90;;;;;;5111994;28;20246;-55
2022/01/16 01:06:10;;;;;;;119.63;14.23;;;2.60;99.90;;;;;;5111996;28;20277;-54
2022/01/16 01:08:38;;;;;;;104.47;14.40;;;2.50;99.90;;;;;;5117572;27;20234;-55
2022/01/16 01:11:11;;;;;;;152.27;17.03;;;2.40;99.90;;;;;;5115671;27;20199;-55
2022/01/16 01:14:07;;;;;;;83.97;13.97;;;2.40;99.90;;;;;;5111658;28;20744;-54
2022/01/16 01:16:49;;;;;;;88.57;15.03;;;2.50;99.90;;;;;;5111771;28;20245;-54
2022/01/16 01:19:21;;;;;;;114.60;15.67;;;2.40;99.90;;;;;;5109066;28;20223;-55
2022/01/16 01:21:49;;;;;;;111.23;14.73;;;2.40;99.90;;;;;;5112074;28;20200;-55
2022/01/16 01:24:17;;;;;;;94.60;14.23;;;2.40;99.90;;;;;;5111077;28;20247;-56
2022/01/16 01:26:53;;;;;;;103.70;15.30;;;2.40;99.90;;;;;;5111728;28;20219;-54
2022/01/16 01:29:21;;;;;;;88.63;14.47;;;2.40;99.90;;;;;;5090677;28;20285;-55
2022/01/16 01:31:52;;;;;;;216.80;19.50;;;2.40;99.90;;;;;;5101300;28;20200;-55
2022/01/16 01:34:21;;;;;;;61.00;12.20;;;2.40;99.90;;;;;;5111473;28;20188;-55
2022/01/16 01:36:50;;;;;;;88.13;13.13;;;2.40;99.90;;;;;;5111537;28;20203;-54
2022/01/16 01:39:20;;;;;;;115.43;14.10;;;2.50;99.90;;;;;;5111474;28;20221;-54
2022/01/16 01:41:51;;;;;;;100.03;14.63;;;2.50;99.90;;;;;;5111434;28;20227;-55
2022/01/16 01:52:37;;;;;;;59.50;12.10;;;2.50;99.90;;;;;;5111206;28;20196;-56
2022/01/16 01:55:06;;;;;;;48.13;11.33;;;2.50;99.90;;;;;;5111209;28;20670;-55
2022/01/16 01:57:34;;;;;;;117.93;14.67;;;2.40;99.90;;;;;;5111400;28;20834;-55
2022/01/16 02:00:02;;;;;;;132.03;17.63;;;2.40;99.90;;;;;;5098281;28;20278;-55
2022/01/16 02:02:38;;;;;;;58.10;12.03;;;2.40;99.90;;;;;;5091277;28;20238;-55
2022/01/16 02:05:08;;;;;;;24.50;10.93;;;2.50;99.90;;;;;;5092569;28;20286;-54
2022/01/16 02:07:36;;;;;;;56.30;12.00;;;2.60;99.90;;;;;;5094543;28;20205;-55
2022/01/16 02:10:05;;;;;;;39.47;10.73;;;2.60;99.90;;;;;;5123255;27;20225;-56
2022/01/16 02:12:36;;;;;;;162.60;16.70;;;2.70;99.90;;;;;;5115565;28;20272;-54
2022/01/16 02:15:29;;;;;;;201.17;18.70;;;2.60;99.90;;;;;;5114397;28;20207;-53
2022/01/16 02:29:35;;;;;;;34.23;11.43;;;2.40;99.90;;;;;;5113441;28;20652;-54
2022/01/16 02:32:01;;;;;;;50.63;11.40;;;2.30;99.90;;;;;;5114964;28;20231;-55
2022/01/16 02:34:32;;;;;;;61.53;12.73;;;2.40;99.90;;;;;;5115006;28;20226;-54
2022/01/16 02:37:04;;;;;;;129.77;16.53;;;2.40;99.90;;;;;;5114793;28;20219;-55
2022/01/16 02:39:38;;;;;;;68.83;13.90;;;2.40;99.90;;;;;;5114692;28;20704;-55
2022/01/16 02:42:08;;;;;;;136.27;18.47;;;2.40;99.90;;;;;;5113059;27;20208;-54
2022/01/16 02:44:44;;;;;;;54.87;14.30;;;2.40;99.90;;;;;;5114041;28;20273;-54
2022/01/16 02:47:17;;;;;;;48.93;13.80;;;2.40;99.90;;;;;;5103547;28;20230;-54
2022/01/16 02:49:47;;;;;;;60.13;13.47;;;2.50;99.90;;;;;;5113866;28;20277;-54
2022/01/16 02:52:18;;;;;;;93.53;15.87;;;2.50;99.90;;;;;;5114684;28;20207;-55
2022/01/16 02:54:51;;;;;;;162.80;19.70;;;2.40;99.90;;;;;;5114821;28;20603;-54
2022/01/16 02:57:22;;;;;;;109.43;16.63;;;2.40;99.90;;;;;;5114621;28;20546;-55
2022/01/16 02:59:52;;;;;;;77.53;14.90;;;2.40;99.90;;;;;;5102818;28;20225;-55
2022/01/16 03:02:22;;;;;;;188.43;24.37;;;2.40;99.90;;;;;;5093759;28;20262;-55
2022/01/16 03:04:50;;;;;;;117.87;17.73;;;2.30;99.90;;;;;;5094522;28;20582;-55
2022/01/16 03:07:19;;;;;;;85.30;17.40;;;2.30;99.90;;;;;;5093051;28;20369;-55
2022/01/16 03:10:10;;;;;;;77.40;15.50;;;2.30;99.90;;;;;;5119612;27;20231;-54
2022/01/16 03:12:38;;;;;;;43.27;13.60;;;2.50;99.90;;;;;;5103074;27;20250;-54
2022/01/16 03:15:07;;;;;;;132.23;19.20;;;2.50;99.90;;;;;;5134620;27;20206;-55
2022/01/16 03:17:41;;;;;;;64.27;15.57;;;2.50;99.90;;;;;;5133657;27;20251;-54
2022/01/16 03:22:55;;;;;;;83.90;16.90;;;2.60;99.90;;;;;;5117549;27;20256;-55
2022/01/16 03:25:24;;;;;;;55.53;14.93;;;2.70;99.90;;;;;;5115631;27;20695;-54
2022/01/16 03:27:52;;;;;;;116.33;17.83;;;2.70;99.90;;;;;;5134692;27;20203;-54
2022/01/16 03:30:21;;;;;;;76.70;17.80;;;2.70;99.90;;;;;;5133116;27;20223;-54
2022/01/16 03:32:49;;;;;;;120.07;20.13;;;2.50;99.90;;;;;;5134628;27;20727;-54
2022/01/16 03:35:17;;;;;;;63.87;16.80;;;2.40;99.90;;;;;;5128738;27;20192;-55
2022/01/16 03:37:45;;;;;;;57.60;16.63;;;2.40;99.90;;;;;;5113141;28;20218;-55
2022/01/16 03:40:14;;;;;;;95.50;19.30;;;2.50;99.90;;;;;;5121478;27;20251;-55
2022/01/16 03:42:45;;;;;;;75.20;17.90;;;2.50;99.90;;;;;;5107726;28;20206;-55
2022/01/16 03:45:13;;;;;;;112.97;21.13;;;2.50;99.90;;;;;;5105621;28;20245;-55
2022/01/16 03:47:41;;;;;;;147.60;21.70;;;2.50;99.90;;;;;;5113688;28;20318;-55
2022/01/16 03:50:10;;;;;;;94.83;19.00;;;2.50;99.90;;;;;;5113631;28;20231;-55
2022/01/16 03:52:39;;;;;;;99.27;17.47;;;2.50;99.90;;;;;;5113262;28;20251;-54
2022/01/16 03:55:08;;;;;;;49.73;17.37;;;2.50;99.90;;;;;;5127936;27;20256;-55
2022/01/16 03:57:36;;;;;;;67.27;17.13;;;2.50;99.90;;;;;;5133964;27;20197;-55
2022/01/16 04:00:08;;;;;;;51.07;16.17;;;2.60;99.90;;;;;;5119972;27;20230;-55
2022/01/16 04:02:36;;;;;;;60.23;16.80;;;2.60;99.90;;;;;;5113517;28;20676;-54
2022/01/16 04:05:05;;;;;;;72.23;19.20;;;2.70;99.90;;;;;;5112842;28;20744;-56
2022/01/16 04:07:35;;;;;;;102.87;19.57;;;2.60;99.90;;;;;;5114251;27;20757;-54
2022/01/16 04:10:06;;;;;;;185.13;26.23;;;2.60;99.90;;;;;;5126299;27;20224;-55
2022/01/16 04:12:37;;;;;;;120.40;21.37;;;2.50;99.90;;;;;;5113000;28;20858;-56
2022/01/16 04:17:55;;;;;;;91.77;19.90;;;2.50;99.90;;;;;;5112933;28;20263;-56
2022/01/16 04:20:23;;;;;;;59.70;17.97;;;2.50;99.90;;;;;;5112558;28;20266;-56
2022/01/16 04:22:51;;;;;;;123.60;21.53;;;2.50;99.90;;;;;;5124943;27;20211;-56
2022/01/16 04:25:19;;;;;;;130.70;21.83;;;2.60;99.90;;;;;;5114863;27;20225;-55
2022/01/16 04:27:47;;;;;;;96.90;18.87;;;2.60;99.90;;;;;;5112448;28;20227;-54
2022/01/16 04:30:17;;;;;;;180.93;25.10;;;2.60;99.90;;;;;;5112120;28;20227;-56
2022/01/16 04:32:45;;;;;;;117.23;21.20;;;2.60;99.90;;;;;;5112726;28;20240;-55
2022/01/16 04:35:14;;;;;;;102.53;21.30;;;2.70;99.90;;;;;;5112720;28;20245;-55
2022/01/16 04:37:42;;;;;;;106.70;22.10;;;2.70;99.90;;;;;;5120530;27;20221;-54
2022/01/16 04:40:39;;;;;;;98.07;22.83;;;2.70;99.90;;;;;;5112153;28;20225;-56
2022/01/16 04:45:54;;;;;;;96.47;21.93;;;2.70;99.90;;;;;;5112522;28;20214;-54
2022/01/16 04:48:22;;;;;;;79.43;21.33;;;2.60;99.90;;;;;;5112481;28;20290;-53
2022/01/16 04:50:50;;;;;;;43.83;19.37;;;2.60;99.90;;;;;;5122939;27;20227;-54
2022/01/16 04:53:18;;;;;;;68.57;19.17;;;2.60;99.90;;;;;;5121798;27;20665;-55
2022/01/16 04:55:49;;;;;;;78.03;21.90;;;2.70;99.90;;;;;;5112491;28;20203;-55
2022/01/16 04:58:18;;;;;;;69.63;21.33;;;2.70;99.90;;;;;;5111864;28;20180;-54
2022/01/16 05:00:50;;;;;;;125.17;24.40;;;2.80;99.90;;;;;;5092591;28;20226;-55
2022/01/16 05:03:19;;;;;;;75.60;20.10;;;2.80;99.90;;;;;;5091693;28;20208;-55
2022/01/16 05:05:48;;;;;;;51.93;18.73;;;2.80;99.90;;;;;;5128954;27;20217;-54
2022/01/16 05:08:16;;;;;;;29.73;16.13;;;2.80;99.90;;;;;;5132156;27;20254;-54
2022/01/16 05:10:44;;;;;;;38.67;16.93;;;2.90;99.90;;;;;;5119172;27;20355;-54
2022/01/16 05:13:29;;;;;;;37.57;17.73;;;2.80;99.90;;;;;;5111946;28;20199;-54
2022/01/16 05:18:44;;;;;;;73.17;23.10;;;2.80;99.90;;;;;;5120764;27;20195;-55
2022/01/16 05:21:12;;;;;;;33.90;18.33;;;2.90;99.90;;;;;;5129631;27;20212;-55
2022/01/16 05:23:42;;;;;;;33.90;18.47;;;2.90;99.90;;;;;;5111466;28;20212;-55
2022/01/16 05:26:11;;;;;;;34.27;18.30;;;2.90;99.90;;;;;;5111821;28;20203;-55
2022/01/16 05:28:39;;;;;;;37.20;18.13;;;2.90;99.90;;;;;;5109994;28;20253;-54
2022/01/16 05:31:07;;;;;;;37.40;18.33;;;3.00;99.90;;;;;;5111789;28;20222;-54
2022/01/16 05:33:35;;;;;;;40.33;19.17;;;3.00;99.90;;;;;;5119623;27;20269;-53
2022/01/16 05:36:05;;;;;;;30.53;16.97;;;3.00;99.90;;;;;;5111925;28;20553;-55
2022/01/16 05:38:34;;;;;;;30.93;17.60;;;2.90;99.90;;;;;;5110922;27;20726;-54
2022/01/16 05:41:02;;;;;;;30.57;16.97;;;2.90;99.90;;;;;;5111350;28;20257;-55
2022/01/16 05:43:30;;;;;;;32.07;17.50;;;2.90;99.90;;;;;;5111331;28;20210;-54
2022/01/16 05:45:58;;;;;;;25.93;16.40;;;2.90;99.90;;;;;;5112860;28;20216;-54
2022/01/16 05:48:27;;;;;;;31.97;18.60;;;2.80;99.90;;;;;;5131996;27;20612;-55
2022/01/16 05:50:55;;;;;;;32.23;16.57;;;2.80;99.90;;;;;;5131602;27;20664;-56
2022/01/16 05:53:25;;;;;;;19.17;10.87;;;2.90;99.90;;;;;;5115839;27;20196;-55
2022/01/16 05:55:53;;;;;;;26.70;13.63;;;2.90;99.90;;;;;;5111200;28;20684;-55
2022/01/16 05:58:21;;;;;;;19.13;13.20;;;2.80;99.90;;;;;;5111261;28;20202;-55
2022/01/16 06:00:49;;;;;;;24.97;14.67;;;2.80;99.90;;;;;;5118829;28;20227;-54
2022/01/16 06:03:19;;;;;;;16.93;12.90;;;2.80;99.90;;;;;;5131485;27;20236;-55
2022/01/16 06:05:47;;;;;;;21.60;13.07;;;2.70;99.90;;;;;;5132280;27;20263;-54
2022/01/16 06:08:15;;;;;;;18.23;12.83;;;2.80;99.90;;;;;;5131394;27;20257;-55
2022/01/16 06:10:44;;;;;;;19.70;12.43;;;2.80;99.90;;;;;;5118693;27;20246;-55
2022/01/16 06:13:13;;;;;;;23.10;14.37;;;2.70;99.90;;;;;;5110910;28;20203;-56
2022/01/16 06:15:41;;;;;;;17.67;12.00;;;2.70;99.90;;;;;;5127355;28;20207;-54
2022/01/16 06:18:09;;;;;;;19.23;11.83;;;2.70;99.90;;;;;;5133679;27;20202;-53
2022/01/16 06:20:37;;;;;;;20.63;12.17;;;2.80;99.90;;;;;;5122629;27;20765;-55
2022/01/16 06:23:05;;;;;;;18.67;12.23;;;2.70;99.90;;;;;;5112796;28;20249;-54
2022/01/16 06:25:33;;;;;;;25.03;12.10;;;2.70;99.90;;;;;;5112419;28;20238;-54
2022/01/16 06:28:03;;;;;;;20.10;12.90;;;2.70;99.90;;;;;;5111852;28;20279;-55
2022/01/16 06:30:31;;;;;;;24.20;13.80;;;2.70;99.90;;;;;;5110675;27;20234;-55
2022/01/16 06:32:59;;;;;;;24.73;13.87;;;2.60;99.90;;;;;;5111232;28;20235;-54
2022/01/16 06:35:27;;;;;;;20.13;11.40;;;2.60;99.90;;;;;;5113406;28;20200;-54
2022/01/16 06:37:55;;;;;;;19.80;13.23;;;2.50;99.90;;;;;;5092049;28;20661;-54
2022/01/16 06:40:23;;;;;;;21.80;12.60;;;2.50;99.90;;;;;;5089588;28;20232;-54
2022/01/16 06:42:52;;;;;;;25.00;13.80;;;2.60;99.90;;;;;;5102719;28;20223;-54
2022/01/16 06:45:22;;;;;;;25.43;14.10;;;2.50;99.90;;;;;;5131328;27;20297;-55
2022/01/16 06:47:51;;;;;;;22.77;14.10;;;2.50;99.90;;;;;;5130308;27;20264;-55
2022/01/16 06:50:20;;;;;;;21.17;13.77;;;2.60;99.90;;;;;;5111243;28;20223;-55
2022/01/16 06:52:48;;;;;;;22.07;13.40;;;2.60;99.90;;;;;;5108315;28;20261;-54
2022/01/16 06:55:16;;;;;;;20.57;12.33;;;2.60;99.90;;;;;;5098621;28;20245;-54
2022/01/16 06:57:44;;;;;;;23.70;13.03;;;2.70;99.90;;;;;;5128635;27;20225;-54
2022/01/16 07:00:13;;;;;;;24.53;12.73;;;2.70;99.90;;;;;;5105239;27;20305;-56
2022/01/16 07:02:42;;;;;;;26.10;14.47;;;2.70;99.90;;;;;;5094089;28;20740;-54
2022/01/16 07:05:11;;;;;;;34.57;16.10;;;2.70;99.90;;;;;;5094028;28;20240;-53
2022/01/16 07:07:39;;;;;;;23.40;13.53;;;2.70;99.90;;;;;;5104285;28;20229;-55
2022/01/16 07:10:08;;;;;;;22.60;13.50;;;2.60;99.90;;;;;;5114420;28;20249;-55
2022/01/16 07:12:36;;;;;;;26.73;14.67;;;2.60;99.90;;;;;;5087729;27;20211;-55
2022/01/16 07:15:05;;;;;;;25.70;14.23;;;2.70;99.90;;;;;;5134727;27;20274;-56
2022/01/16 07:17:33;;;;;;;24.20;13.80;;;2.70;99.90;;;;;;5118329;27;20230;-55
2022/01/16 07:20:03;;;;;;;26.23;14.30;;;2.80;99.90;;;;;;5114228;28;20221;-54
2022/01/16 07:22:31;;;;;;;22.57;13.90;;;2.80;99.90;;;;;;5113703;28;20223;-54
2022/01/16 07:24:59;;;;;;;29.27;15.37;;;2.90;99.90;;;;;;5119575;27;20199;-55
2022/01/16 07:27:27;;;;;;;26.40;14.23;;;2.90;99.90;;;;;;5115473;27;20212;-54
2022/01/16 07:29:55;;;;;;;27.90;14.40;;;2.80;99.90;;;;;;5113077;28;20227;-54
2022/01/16 07:32:23;;;;;;;24.27;13.47;;;2.80;99.90;;;;;;5113930;28;20293;-55
2022/01/16 07:34:53;;;;;;;32.53;15.17;;;2.70;99.90;;;;;;5113974;28;20677;-56
2022/01/16 07:37:22;;;;;;;25.67;13.40;;;2.80;99.90;;;;;;5113526;28;20207;-54
2022/01/16 07:39:50;;;;;;;26.23;14.23;;;2.80;99.90;;;;;;5126416;27;20775;-55
2022/01/16 07:42:18;;;;;;;25.80;14.27;;;2.80;99.90;;;;;;5132540;27;20246;-55
2022/01/16 07:44:46;;;;;;;28.50;13.80;;;2.80;99.90;;;;;;5129777;27;20252;-54
2022/01/16 07:47:15;;;;;;;27.20;15.57;;;2.80;99.90;;;;;;5127507;27;20214;-54
2022/01/16 07:49:43;;;;;;;23.27;13.00;;;2.90;99.90;;;;;;5133363;27;20310;-55
2022/01/16 07:52:11;;;;;;;26.07;13.73;;;2.90;99.90;;;;;;5121627;27;20247;-56
2022/01/16 07:54:41;;;;;;;23.40;12.87;;;2.90;99.90;;;;;;5123338;27;20630;-55
2022/01/16 07:57:09;;;;;;;25.53;12.97;;;2.90;99.90;;;;;;5133488;27;20198;-55
2022/01/16 07:59:37;;;;;;;24.33;13.40;;;2.90;99.90;;;;;;5122862;27;20375;-55
2022/01/16 08:02:05;;;;;;;21.70;12.17;;;2.80;99.90;;;;;;5126511;27;20257;-55
2022/01/16 08:04:34;;;;;;;20.03;11.70;;;2.80;99.90;;;;;;5130994;27;20256;-56
2022/01/16 08:07:04;;;;;;;21.27;12.80;;;2.80;99.90;;;;;;5126293;27;20202;-55
2022/01/16 08:09:32;;;;;;;18.00;11.57;;;2.90;99.90;;;;;;5123577;27;20255;-54
2022/01/16 08:12:01;;;;;;;20.17;12.60;;;2.90;99.90;;;;;;5132096;27;20203;-55
2022/01/16 08:14:29;;;;;;;19.00;12.37;;;2.90;99.90;;;;;;5130923;27;20199;-54
2022/01/16 08:16:57;;;;;;;19.67;11.87;;;2.90;99.90;;;;;;5124200;27;20232;-55
2022/01/16 08:19:26;;;;;;;21.33;13.17;;;2.90;99.90;;;;;;5131770;27;20216;-55
2022/01/16 08:21:54;;;;;;;20.67;12.23;;;2.90;99.90;;;;;;5121433;27;20716;-55
2022/01/16 08:24:23;;;;;;;25.30;14.13;;;2.90;99.90;;;;;;5127873;27;20258;-55
2022/01/16 08:26:51;;;;;;;24.23;12.53;;;2.90;99.90;;;;;;5116094;27;20267;-55
2022/01/16 08:29:21;;;;;;;19.77;12.53;;;2.90;99.90;;;;;;5128029;27;20299;-54
2022/01/16 08:31:49;;;;;;;34.57;14.30;;;2.90;99.90;;;;;;5129315;27;20199;-54
2022/01/16 08:34:17;;;;;;;23.13;12.93;;;3.00;99.90;;;;;;5126577;27;20257;-55
2022/01/16 08:36:45;;;;;;;24.73;12.97;;;3.00;99.90;;;;;;5119982;27;20207;-54
2022/01/16 08:39:14;;;;;;;24.20;12.93;;;3.00;99.90;;;;;;5117768;27;20272;-55
2022/01/16 08:41:42;;;;;;;23.93;14.80;;;3.10;99.90;;;;;;5117511;27;20238;-54
2022/01/16 08:44:10;;;;;;;20.27;12.57;;;3.10;99.90;;;;;;5111375;28;20217;-54
2022/01/16 08:46:42;;;;;;;20.30;13.03;;;3.10;99.90;;;;;;5112814;28;20233;-55
2022/01/16 08:49:10;;;;;;;21.00;12.93;;;3.10;99.90;;;;;;5111659;28;20227;-54
2022/01/16 08:51:38;;;;;;;27.77;14.60;;;3.10;99.90;;;;;;5120656;27;20208;-55
2022/01/16 08:54:07;;;;;;;22.57;13.50;;;3.10;99.90;;;;;;5115410;27;20710;-54
2022/01/16 08:56:35;;;;;;;23.60;14.93;;;3.10;99.90;;;;;;5112398;28;20206;-54
2022/01/16 08:59:03;;;;;;;22.23;14.87;;;3.00;99.90;;;;;;5107389;28;20228;-54
2022/01/16 09:01:32;;;;;;;23.27;13.80;;;3.10;99.90;;;;;;5092017;28;20204;-55
2022/01/16 09:04:01;;;;;;;19.73;12.97;;;3.00;99.90;;;;;;5091617;28;20212;-55
2022/01/16 09:06:29;;;;;;;19.87;12.97;;;3.10;99.90;;;;;;5122125;27;20253;-56
2022/01/16 09:08:57;;;;;;;19.47;12.70;;;3.00;99.90;;;;;;5124870;27;20258;-56
2022/01/16 09:11:25;;;;;;;21.37;14.07;;;3.10;99.90;;;;;;5112062;28;20254;-56
2022/01/16 09:13:54;;;;;;;19.03;12.60;;;3.10;99.90;;;;;;5121831;27;20247;-56
2022/01/16 09:16:22;;;;;;;21.10;14.17;;;3.10;99.90;;;;;;5132436;27;20246;-56
2022/01/16 09:18:50;;;;;;;24.53;14.83;;;3.10;99.90;;;;;;5122906;27;20214;-55
2022/01/16 09:21:20;;;;;;;23.20;15.57;;;3.20;99.90;;;;;;5111448;28;20200;-55
2022/01/16 09:23:50;;;;;;;22.53;14.83;;;3.20;99.90;;;;;;5111612;28;20648;-55
2022/01/16 09:26:19;;;;;;;25.50;15.93;;;3.30;99.90;;;;;;5111904;28;20187;-55
2022/01/16 09:28:47;;;;;;;26.53;15.77;;;3.30;99.90;;;;;;5125391;27;20253;-55
2022/01/16 09:31:15;;;;;;;28.73;17.67;;;3.40;99.90;;;;;;5132335;27;20240;-55
2022/01/16 09:33:43;;;;;;;28.40;17.57;;;3.40;99.90;;;;;;5131749;27;20248;-55
2022/01/16 09:36:11;;;;;;;26.23;16.47;;;3.30;99.90;;;;;;5106858;27;20265;-54
2022/01/16 09:38:41;;;;;;;29.73;17.10;;;3.40;99.90;;;;;;5091194;28;20209;-54
2022/01/16 09:41:10;;;;;;;25.33;17.70;;;3.50;99.90;;;;;;5084591;28;20205;-55
2022/01/16 09:43:38;;;;;;;27.80;17.53;;;3.50;99.90;;;;;;5088805;28;20277;-56
2022/01/16 09:46:07;;;;;;;25.07;16.67;;;3.40;99.90;;;;;;5102545;28;20583;-55
2022/01/16 09:48:35;;;;;;;26.13;16.17;;;3.40;99.90;;;;;;5102142;28;20207;-55
2022/01/16 09:51:04;;;;;;;26.20;16.83;;;3.40;99.90;;;;;;5108825;28;20231;-55
2022/01/16 09:53:32;;;;;;;31.53;18.17;;;3.40;99.90;;;;;;5109987;28;20205;-55
2022/01/16 09:56:01;;;;;;;27.53;17.33;;;3.40;99.90;;;;;;5092779;28;20239;-56
2022/01/16 09:58:30;;;;;;;30.00;17.83;;;3.40;99.90;;;;;;5109394;28;20235;-55
2022/01/16 10:00:58;;;;;;;25.93;15.97;;;3.40;99.90;;;;;;5099566;28;20612;-55
2022/01/16 10:03:36;;;;;;;26.77;16.77;;;3.50;99.90;;;;;;5098401;28;20216;-55
2022/01/16 10:06:13;;;;;;;28.13;16.70;;;3.50;99.90;;;;;;5107627;28;20566;-56
2022/01/16 10:08:43;;;;;;;28.73;17.00;;;3.50;99.90;;;;;;5097331;28;20746;-56
2022/01/16 10:11:29;;;;;;;30.93;18.23;;;3.50;99.90;;;;;;5106258;28;20213;-56
2022/01/16 10:14:02;;;;;;;29.07;17.43;;;3.50;99.90;;;;;;5105933;28;20625;-55
2022/01/16 10:16:33;;;;;;;28.97;17.57;;;3.40;99.90;;;;;;5099477;28;20216;-54
2022/01/16 10:19:01;;;;;;;30.70;18.17;;;3.50;99.90;;;;;;5098587;28;20306;-55
2022/01/16 10:21:35;;;;;;;31.90;19.17;;;3.40;99.90;;;;;;5108296;28;20241;-54
2022/01/16 10:24:20;;;;;;;31.23;17.50;;;3.40;99.90;;;;;;5102772;28;20216;-55
2022/01/16 10:26:51;;;;;;;30.83;17.67;;;3.40;99.90;;;;;;5109538;28;20211;-55
2022/01/16 10:29:21;;;;;;;33.47;20.80;;;3.50;99.90;;;;;;5114490;27;20276;-54
2022/01/16 10:31:50;;;;;;;28.00;17.53;;;3.40;99.90;;;;;;5094745;28;20211;-55
2022/01/16 10:34:27;;;;;;;27.63;17.50;;;3.40;99.90;;;;;;5107488;27;20207;-56
2022/01/16 10:36:55;;;;;;;28.77;17.77;;;3.50;99.90;;;;;;5103375;28;20217;-56
2022/01/16 10:39:23;;;;;;;32.03;18.47;;;3.40;99.90;;;;;;5105062;27;20226;-55
2022/01/16 10:42:16;;;;;;;31.00;17.73;;;3.40;99.90;;;;;;5108526;27;20268;-55
2022/01/16 10:44:45;;;;;;;29.87;18.20;;;3.40;99.90;;;;;;5109895;28;20621;-55
2022/01/16 10:47:24;;;;;;;31.80;19.17;;;3.50;99.90;;;;;;5112686;28;20672;-56
2022/01/16 10:50:06;;;;;;;32.67;18.47;;;3.40;99.90;;;;;;5109245;28;20228;-55
2022/01/16 10:52:45;;;;;;;30.27;18.20;;;3.40;99.90;;;;;;5095660;28;20205;-55
2022/01/16 10:55:14;;;;;;;33.83;19.57;;;3.40;99.90;;;;;;5102286;28;20214;-55
2022/01/16 10:57:45;;;;;;;31.87;20.00;;;3.40;99.90;;;;;;5100836;28;20265;-55
2022/01/16 11:00:17;;;;;;;28.67;19.07;;;3.50;99.90;;;;;;5112853;28;20228;-55
2022/01/16 11:02:47;;;;;;;36.83;21.83;;;3.50;99.90;;;;;;5112185;27;20208;-55
2022/01/16 11:05:18;;;;;;;43.83;23.97;;;3.50;99.90;;;;;;5101021;28;20221;-55
2022/01/16 11:07:46;;;;;;;39.27;22.53;;;3.60;99.90;;;;;;5106633;27;20201;-55
2022/01/16 11:10:27;;;;;;;37.30;22.30;;;3.60;99.90;;;;;;5112651;28;20712;-54
2022/01/16 11:12:58;;;;;;;36.33;23.10;;;3.70;99.90;;;;;;5106427;28;20744;-57
2022/01/16 11:15:28;;;;;;;50.40;25.47;;;3.70;99.90;;;;;;5110869;28;20196;-55
2022/01/16 11:17:56;;;;;;;37.33;22.60;;;3.70;99.90;;;;;;5116296;27;20231;-55
2022/01/16 11:20:29;;;;;;;43.70;26.40;;;3.70;99.90;;;;;;5113362;28;20229;-55
2022/01/16 11:23:05;;;;;;;35.07;22.10;;;3.80;99.90;;;;;;5112419;27;20300;-54
2022/01/16 11:25:38;;;;;;;37.87;22.13;;;3.70;99.90;;;;;;5101269;28;20269;-55
2022/01/16 11:28:11;;;;;;;40.37;23.83;;;3.60;99.90;;;;;;5107164;27;20213;-56
2022/01/16 11:30:42;;;;;;;36.20;23.30;;;3.60;99.90;;;;;;5112597;28;20235;-56
2022/01/16 11:33:10;;;;;;;36.70;27.27;;;3.70;99.90;;;;;;5110677;27;20423;-56
2022/01/16 11:35:45;;;;;;;41.70;25.17;;;3.90;99.90;;;;;;5106338;27;20237;-55
2022/01/16 11:38:14;;;;;;;41.20;24.13;;;3.90;99.90;;;;;;5111108;28;20207;-55
2022/01/16 11:40:48;;;;;;;41.83;23.57;;;3.80;99.90;;;;;;5099344;28;20238;-55
2022/01/16 11:43:24;;;;;;;40.23;23.80;;;3.80;99.90;;;;;;5095434;28;20209;-55
2022/01/16 11:46:05;;;;;;;45.07;24.60;;;3.80;99.90;;;;;;5092288;28;20582;-56
2022/01/16 11:48:42;;;;;;;38.73;24.87;;;3.80;99.90;;;;;;5108109;28;20258;-54
2022/01/16 11:52:01;;;;;;;40.73;25.63;;;3.80;99.90;;;;;;5112575;28;20232;-55
2022/01/16 11:54:35;;;;;;;41.63;25.57;;;3.90;99.90;;;;;;5093066;28;20698;-54
2022/01/16 11:57:20;;;;;;;43.63;24.60;;;4.00;99.90;;;;;;5103316;28;20201;-56
2022/01/16 11:59:51;;;;;;;42.47;25.80;;;4.10;99.90;;;;;;5110799;27;20779;-55
2022/01/16 12:02:25;;;;;;;47.27;26.47;;;4.10;99.90;;;;;;5113023;28;20227;-56
2022/01/16 12:05:05;;;;;;;46.50;27.17;;;4.20;99.90;;;;;;5113579;28;20251;-55
2022/01/16 12:07:46;;;;;;;41.00;24.20;;;4.40;99.90;;;;;;5110348;28;20263;-55
2022/01/16 12:10:43;;;;;;;38.27;24.60;;;4.40;99.90;;;;;;5112639;28;20705;-55
2022/01/16 12:13:52;;;;;;;45.03;26.00;;;4.50;99.90;;;;;;5109720;27;20238;-56
2022/01/16 12:16:42;;;;;;;43.30;26.07;;;4.50;99.90;;;;;;5127742;27;20281;-55
2022/01/16 12:19:43;;;;;;;44.70;25.20;;;4.60;99.90;;;;;;5126758;27;20232;-55
2022/01/16 12:22:39;;;;;;;36.80;24.30;;;4.60;99.90;;;;;;5123681;27;20220;-56
2022/01/16 12:25:08;;;;;;;40.60;24.73;;;4.60;99.90;;;;;;5132603;27;20282;-56
2022/01/16 12:27:44;;;;;;;39.30;24.87;;;4.70;99.90;;;;;;5132695;27;20245;-55
2022/01/16 12:30:32;;;;;;;42.43;26.20;;;4.70;99.90;;;;;;5121647;27;20223;-55
2022/01/16 12:33:23;;;;;;;45.83;26.90;;;4.60;99.90;;;;;;5113010;28;20568;-55
2022/01/16 12:36:10;;;;;;;44.30;24.77;;;4.50;99.90;;;;;;5101886;28;20222;-54
2022/01/16 12:39:01;;;;;;;40.57;25.30;;;4.60;99.90;;;;;;5121134;27;20252;-56
2022/01/16 12:41:38;;;;;;;39.50;25.33;;;4.70;99.90;;;;;;5092360;28;20197;-55
2022/01/16 12:44:09;;;;;;;45.00;26.60;;;4.80;99.90;;;;;;5123911;27;20202;-54
2022/01/16 12:46:40;;;;;;;32.10;22.87;;;4.80;99.90;;;;;;5133174;27;20199;-55
2022/01/16 12:49:12;;;;;;;38.73;25.47;;;4.90;99.90;;;;;;5132122;27;20273;-56
2022/01/16 12:51:42;;;;;;;37.73;24.97;;;4.90;99.90;;;;;;5126427;27;20212;-55
2022/01/16 12:54:12;;;;;;;37.60;24.63;;;4.90;99.90;;;;;;5111782;28;20205;-55
2022/01/16 12:56:43;;;;;;;38.97;25.13;;;4.90;99.90;;;;;;5107355;28;20229;-55
2022/01/16 12:59:35;;;;;;;37.07;24.83;;;4.90;99.90;;;;;;5090508;28;20316;-55
2022/01/16 13:02:06;;;;;;;38.93;25.33;;;4.90;99.90;;;;;;5099609;28;20204;-55
2022/01/16 13:04:37;;;;;;;37.80;24.43;;;4.80;99.90;;;;;;5101642;27;20209;-55
2022/01/16 13:07:26;;;;;;;44.93;26.87;;;4.90;99.90;;;;;;5100859;27;20204;-56
2022/01/16 13:09:54;;;;;;;43.97;26.50;;;4.80;99.90;;;;;;5116747;27;20223;-55
2022/01/16 13:12:22;;;;;;;43.83;26.67;;;4.70;99.90;;;;;;5109256;28;20307;-56
2022/01/16 13:14:50;;;;;;;39.20;24.70;;;4.80;99.90;;;;;;5095023;28;20290;-56
2022/01/16 13:17:19;;;;;;;43.97;25.93;;;4.80;99.90;;;;;;5090383;28;20238;-54
2022/01/16 13:19:54;;;;;;;45.17;27.07;;;4.80;99.90;;;;;;5094417;27;20227;-56
2022/01/16 13:22:25;;;;;;;36.47;24.90;;;4.60;99.90;;;;;;5100787;28;20359;-55
2022/01/16 13:24:55;;;;;;;35.20;23.80;;;4.70;99.90;;;;;;5095642;28;20207;-55
2022/01/16 13:27:25;;;;;;;36.07;24.67;;;4.80;99.90;;;;;;5088838;28;20212;-55